Tavernier, Florida
Current Conditions -  °F | °C
As of 8:58 AM on Saturday 25 Oct 2014 (Local Time) from KHST Reporting Station
Clear Clear  
Wind Chill: 71°   Ceiling: Unl
Heat Index: 71°   Visibility: 10mi
Dew Point: 63°   Wind: 12mph
Humidity: 77%   Direction: 330°NNW
Pressure: 29.92"   Gusts: NA
Location:  25.01°N, 80.51°W
Report Text: KHST 251258Z AUTO 33010KT 10SM CLR 22/17 A2992 RMK AO2 SLP135 T02160174
Loading
Personal Weather Stations






























Interactive Weather Map
Tropical Storm Tracking
New forecast layout! Learn more

10-Day Weather Forecast

Advertisements
Track Severe Weather on mobile